createdAt,value
2023-06-07T00:00:11.347Z,18.36
2023-06-07T00:02:44.621Z,18.23
2023-06-07T00:05:14.493Z,18.05
2023-06-07T00:07:42.227Z,18.07
2023-06-07T00:10:09.419Z,18.05
2023-06-07T00:12:36.320Z,18.00
2023-06-07T00:15:03.664Z,17.96
2023-06-07T00:17:31.652Z,18.00
2023-06-07T00:19:58.710Z,18.10
2023-06-07T00:22:26.531Z,18.18
2023-06-07T00:24:53.699Z,18.14
2023-06-07T00:27:21.058Z,18.25
2023-06-07T00:29:48.020Z,18.32
2023-06-07T00:32:15.177Z,18.37
2023-06-07T00:34:42.152Z,18.38
2023-06-07T00:37:09.197Z,18.37
2023-06-07T00:39:36.444Z,18.30
2023-06-07T00:42:04.935Z,18.31
2023-06-07T00:44:31.963Z,18.30
2023-06-07T00:46:59.171Z,18.27
2023-06-07T00:49:26.047Z,18.30
2023-06-07T00:51:53.300Z,18.32
2023-06-07T00:54:20.774Z,18.30
2023-06-07T00:56:51.008Z,18.31
2023-06-07T00:59:21.693Z,18.35
2023-06-07T01:01:49.933Z,18.31
2023-06-07T01:04:19.528Z,18.26
2023-06-07T01:06:46.644Z,18.24
2023-06-07T01:09:15.240Z,18.18
2023-06-07T01:11:44.085Z,18.07
2023-06-07T01:14:12.271Z,18.08
2023-06-07T01:16:41.086Z,17.99
2023-06-07T01:19:08.026Z,18.03
2023-06-07T01:21:36.767Z,17.98
2023-06-07T01:24:04.582Z,17.92
2023-06-07T01:26:32.022Z,17.94
2023-06-07T01:29:07.099Z,17.96
2023-06-07T01:31:37.023Z,17.96
2023-06-07T01:34:04.988Z,17.97
2023-06-07T01:36:33.000Z,17.96
2023-06-07T01:39:01.279Z,18.01
2023-06-07T01:41:29.819Z,18.03
2023-06-07T01:43:58.851Z,18.02
2023-06-07T01:46:27.701Z,18.05
2023-06-07T01:48:55.274Z,18.02
2023-06-07T01:51:23.018Z,17.93
2023-06-07T01:53:53.250Z,17.92
2023-06-07T01:56:41.265Z,17.93
2023-06-07T02:02:31.715Z,17.94
2023-06-07T02:05:03.948Z,17.95
2023-06-07T02:07:37.128Z,17.95
2023-06-07T02:10:04.927Z,17.84
2023-06-07T02:12:34.277Z,17.65
2023-06-07T02:15:01.835Z,17.74
2023-06-07T02:17:30.133Z,17.72
2023-06-07T02:19:57.940Z,17.64
2023-06-07T02:22:24.898Z,17.76
2023-06-07T02:24:52.292Z,17.81
2023-06-07T02:27:19.111Z,17.78
2023-06-07T02:29:46.077Z,17.67
2023-06-07T02:32:12.842Z,17.66
2023-06-07T02:34:40.739Z,17.67
2023-06-07T02:37:07.605Z,17.68
2023-06-07T02:39:34.471Z,17.69
2023-06-07T02:42:01.317Z,17.70
2023-06-07T02:44:29.548Z,17.66
2023-06-07T02:46:58.310Z,17.62
2023-06-07T02:49:25.231Z,17.63
2023-06-07T02:51:53.914Z,17.59
2023-06-07T02:54:20.740Z,17.57
2023-06-07T02:56:48.531Z,17.62
2023-06-07T02:59:15.415Z,17.63
2023-06-07T03:01:44.971Z,17.72
2023-06-07T03:04:12.863Z,17.62
2023-06-07T03:06:42.911Z,17.61
2023-06-07T03:09:25.059Z,17.62
2023-06-07T03:11:52.273Z,17.65
2023-06-07T03:14:20.816Z,17.55
2023-06-07T03:16:49.941Z,17.53
2023-06-07T03:19:17.164Z,17.60
2023-06-07T03:21:45.970Z,17.65
2023-06-07T03:24:18.279Z,17.58
2023-06-07T03:26:46.186Z,17.60
2023-06-07T03:29:16.040Z,17.63
2023-06-07T03:31:43.136Z,17.61
2023-06-07T03:34:14.170Z,17.49
2023-06-07T03:36:41.487Z,17.62
2023-06-07T03:39:11.136Z,17.59
2023-06-07T03:41:38.191Z,17.60
2023-06-07T03:44:07.750Z,17.50
2023-06-07T03:46:35.741Z,17.41
2023-06-07T03:49:03.162Z,17.46
2023-06-07T03:51:31.687Z,17.51
2023-06-07T03:54:00.805Z,17.49
2023-06-07T03:56:28.595Z,17.42
2023-06-07T03:58:56.175Z,17.40
2023-06-07T04:01:27.202Z,17.44
2023-06-07T04:03:57.307Z,17.55
2023-06-07T04:06:27.427Z,17.55
2023-06-07T04:08:54.998Z,17.65
2023-06-07T04:11:22.948Z,17.65
2023-06-07T04:13:49.869Z,17.74
2023-06-07T04:16:17.265Z,17.82
2023-06-07T04:18:46.426Z,17.86
2023-06-07T04:21:14.676Z,17.82
2023-06-07T04:23:43.927Z,17.76
2023-06-07T04:26:19.960Z,17.73
2023-06-07T04:28:47.696Z,17.78
2023-06-07T04:31:16.505Z,17.78
2023-06-07T04:33:46.873Z,17.80
2023-06-07T04:36:15.679Z,17.61
2023-06-07T04:38:57.452Z,17.64
2023-06-07T04:41:34.508Z,17.58
2023-06-07T04:44:04.725Z,17.58
2023-06-07T04:46:40.903Z,17.58
2023-06-07T04:49:14.173Z,17.62
2023-06-07T04:51:41.370Z,17.61
2023-06-07T04:54:12.013Z,17.65
2023-06-07T04:56:43.827Z,17.68
2023-06-07T04:59:11.555Z,17.76
2023-06-07T05:01:39.533Z,17.72
2023-06-07T05:04:08.393Z,17.74
2023-06-07T05:06:42.079Z,17.79
2023-06-07T05:09:09.628Z,17.76
2023-06-07T05:11:37.813Z,17.78
2023-06-07T05:14:08.256Z,17.75
2023-06-07T05:16:43.455Z,17.81
2023-06-07T05:19:12.418Z,17.81
2023-06-07T05:21:42.982Z,17.90
2023-06-07T05:24:10.916Z,17.99
2023-06-07T05:26:38.020Z,18.02
2023-06-07T05:29:04.901Z,18.07
2023-06-07T05:31:33.177Z,18.05
2023-06-07T05:34:00.168Z,18.08
2023-06-07T05:36:29.032Z,18.08
2023-06-07T05:38:56.305Z,18.07
2023-06-07T05:41:23.482Z,18.14
2023-06-07T05:43:50.444Z,18.07
2023-06-07T05:46:17.370Z,18.08
2023-06-07T05:48:45.761Z,18.05
2023-06-07T05:51:15.693Z,18.01
2023-06-07T05:53:42.568Z,18.03
2023-06-07T05:56:11.459Z,18.03
2023-06-07T05:58:38.449Z,18.03
2023-06-07T06:01:06.536Z,18.07
2023-06-07T06:03:33.500Z,18.03
2023-06-07T06:06:00.607Z,18.07
2023-06-07T06:08:27.486Z,18.05
2023-06-07T06:10:54.331Z,18.05
2023-06-07T06:13:21.613Z,18.12
2023-06-07T06:15:48.579Z,18.10
2023-06-07T06:18:16.243Z,18.13
2023-06-07T06:20:46.625Z,18.14
2023-06-07T06:23:13.736Z,18.20
2023-06-07T06:25:41.024Z,18.24
2023-06-07T06:28:08.438Z,18.28
2023-06-07T06:30:35.671Z,18.28
2023-06-07T06:33:04.017Z,18.34
2023-06-07T06:35:34.081Z,18.43
2023-06-07T06:38:01.208Z,18.47
2023-06-07T06:40:28.476Z,18.53
2023-06-07T06:42:55.429Z,18.61
2023-06-07T06:45:30.191Z,18.68
2023-06-07T06:47:59.741Z,18.73
2023-06-07T06:52:57.133Z,18.81
2023-06-07T06:55:24.561Z,18.87
2023-06-07T06:57:51.631Z,18.94
2023-06-07T07:00:18.968Z,19.05
2023-06-07T07:02:47.207Z,19.09
2023-06-07T07:05:15.187Z,19.19
2023-06-07T07:07:42.226Z,19.27
2023-06-07T07:10:09.854Z,19.45
2023-06-07T07:12:40.579Z,19.52
2023-06-07T07:15:07.844Z,19.60
2023-06-07T07:17:34.940Z,19.65
2023-06-07T07:20:02.026Z,19.74
2023-06-07T07:22:29.414Z,19.77
2023-06-07T07:24:59.468Z,19.82
2023-06-07T07:27:26.462Z,19.82
2023-06-07T07:29:53.606Z,19.85
2023-06-07T07:32:20.552Z,19.93
2023-06-07T07:34:47.610Z,20.04
2023-06-07T07:37:15.704Z,20.16
2023-06-07T07:39:42.639Z,20.35
2023-06-07T07:42:09.975Z,20.41
2023-06-07T07:44:36.914Z,20.52
2023-06-07T07:47:05.217Z,20.72
2023-06-07T07:49:33.131Z,20.85
2023-06-07T07:52:01.957Z,20.93
2023-06-07T07:54:30.904Z,20.92
2023-06-07T07:56:58.006Z,20.99
2023-06-07T07:59:25.981Z,21.12
2023-06-07T08:01:53.172Z,21.23
2023-06-07T08:04:20.418Z,21.23
2023-06-07T08:06:47.489Z,21.29
2023-06-07T08:09:15.757Z,21.25
2023-06-07T08:11:42.803Z,21.38
2023-06-07T08:14:09.729Z,21.47
2023-06-07T08:16:36.789Z,21.54
2023-06-07T08:19:10.346Z,21.62
2023-06-07T08:21:45.170Z,21.69
2023-06-07T08:24:14.852Z,21.68
2023-06-07T08:26:44.021Z,21.72
2023-06-07T08:29:11.511Z,21.76
2023-06-07T08:31:44.983Z,21.78
2023-06-07T08:34:12.411Z,21.82
2023-06-07T08:36:41.185Z,21.83
2023-06-07T08:39:09.492Z,21.96
2023-06-07T08:41:40.682Z,22.03
2023-06-07T08:44:07.992Z,22.16
2023-06-07T08:46:35.488Z,22.15
2023-06-07T08:49:03.700Z,22.21
2023-06-07T08:51:37.737Z,22.36
2023-06-07T08:54:06.085Z,22.33
2023-06-07T08:56:34.004Z,22.38
2023-06-07T08:59:03.697Z,22.53
2023-06-07T09:01:32.387Z,22.41
2023-06-07T09:04:00.086Z,22.52
2023-06-07T09:06:28.192Z,22.49
2023-06-07T09:08:55.471Z,22.57
2023-06-07T09:11:23.380Z,22.59
2023-06-07T09:13:51.105Z,22.59
2023-06-07T09:16:20.460Z,22.73
2023-06-07T09:18:56.941Z,22.74
2023-06-07T09:21:29.210Z,22.85
2023-06-07T09:23:59.731Z,22.83
2023-06-07T09:26:42.137Z,22.92
2023-06-07T09:29:09.555Z,23.02
2023-06-07T09:31:39.219Z,23.16
2023-06-07T09:34:26.602Z,23.21
2023-06-07T09:37:00.532Z,23.31
2023-06-07T09:39:29.642Z,23.22
2023-06-07T09:41:58.380Z,23.24
2023-06-07T09:44:27.720Z,23.22
2023-06-07T09:46:55.614Z,23.41
2023-06-07T09:49:27.885Z,23.54
2023-06-07T09:51:55.309Z,23.58
2023-06-07T09:54:37.912Z,23.54
2023-06-07T09:57:10.440Z,23.47
2023-06-07T09:59:39.040Z,23.58
2023-06-07T10:02:25.853Z,23.70
2023-06-07T10:04:57.264Z,23.72
2023-06-07T10:07:28.676Z,23.76
2023-06-07T10:09:58.873Z,23.95
2023-06-07T10:12:30.629Z,24.04
2023-06-07T10:15:02.707Z,24.19
2023-06-07T10:17:35.472Z,24.07
2023-06-07T10:20:06.025Z,24.04
2023-06-07T10:22:38.158Z,24.14
2023-06-07T10:25:11.868Z,24.39
2023-06-07T10:28:14.284Z,24.34
2023-06-07T10:30:55.092Z,24.45
2023-06-07T10:33:25.037Z,24.60
2023-06-07T10:35:52.194Z,24.53
2023-06-07T10:38:20.467Z,24.55
2023-06-07T10:40:47.696Z,24.85
2023-06-07T10:43:14.842Z,25.29
2023-06-07T10:45:42.150Z,25.12
2023-06-07T10:48:38.906Z,24.83
2023-06-07T10:51:06.685Z,24.83
2023-06-07T10:53:50.385Z,24.91
2023-06-07T10:56:37.129Z,24.90
2023-06-07T10:59:16.705Z,25.03
2023-06-07T11:01:48.254Z,25.12
2023-06-07T11:04:39.597Z,25.19
2023-06-07T11:07:32.351Z,25.17
2023-06-07T11:10:06.555Z,25.22
2023-06-07T11:12:37.645Z,25.23
2023-06-07T11:15:26.733Z,25.08
2023-06-07T11:17:58.082Z,25.17
2023-06-07T11:20:37.706Z,25.31
2023-06-07T11:23:32.593Z,25.27
2023-06-07T11:26:12.200Z,25.40
2023-06-07T11:28:41.275Z,25.47
2023-06-07T11:31:12.953Z,25.59
2023-06-07T11:33:44.199Z,25.59
2023-06-07T11:36:13.021Z,25.70
2023-06-07T11:38:40.565Z,25.95
2023-06-07T11:41:07.903Z,26.00
2023-06-07T11:43:35.179Z,26.11
2023-06-07T11:46:02.177Z,26.16
2023-06-07T11:48:30.722Z,26.21
2023-06-07T11:50:58.944Z,26.21
2023-06-07T11:53:30.600Z,26.51
2023-06-07T11:56:02.126Z,26.46
2023-06-07T11:58:29.554Z,26.50
2023-06-07T12:00:57.928Z,26.76
2023-06-07T12:03:28.124Z,26.59
2023-06-07T12:05:55.434Z,26.51
2023-06-07T12:08:24.041Z,26.54
2023-06-07T12:10:55.234Z,26.64
2023-06-07T12:13:23.487Z,26.76
2023-06-07T12:15:51.265Z,27.07
2023-06-07T12:18:21.409Z,27.31
2023-06-07T12:20:49.059Z,27.49
2023-06-07T12:23:16.740Z,27.43
2023-06-07T12:25:43.801Z,27.31
2023-06-07T12:28:13.556Z,27.28
2023-06-07T12:30:42.250Z,27.66
2023-06-07T12:33:16.622Z,27.74
2023-06-07T12:35:48.168Z,27.74
2023-06-07T12:38:15.720Z,27.86
2023-06-07T12:40:42.667Z,28.13
2023-06-07T12:43:09.881Z,28.08
2023-06-07T12:45:36.880Z,27.97
2023-06-07T12:48:04.264Z,27.63
2023-06-07T12:50:31.198Z,27.54
2023-06-07T12:52:58.420Z,27.24
2023-06-07T12:55:25.767Z,27.30
2023-06-07T12:57:52.814Z,27.54
2023-06-07T13:00:20.091Z,27.79
2023-06-07T13:02:47.043Z,27.73
2023-06-07T13:05:14.268Z,27.86
2023-06-07T13:07:41.466Z,27.99
2023-06-07T13:10:09.606Z,28.11
2023-06-07T13:12:36.886Z,28.50
2023-06-07T13:15:04.525Z,28.49
2023-06-07T13:17:32.292Z,28.92
2023-06-07T13:19:59.532Z,29.11
2023-06-07T13:22:26.811Z,29.51
2023-06-07T13:24:55.718Z,29.47
2023-06-07T13:27:22.681Z,29.12
2023-06-07T13:29:49.679Z,29.45
2023-06-07T13:32:17.248Z,29.61
2023-06-07T13:34:44.433Z,29.54
2023-06-07T13:37:11.225Z,29.61
2023-06-07T13:39:38.103Z,29.61
2023-06-07T13:42:05.250Z,29.77
2023-06-07T13:44:32.259Z,29.85
2023-06-07T13:46:59.440Z,29.73
2023-06-07T13:49:26.477Z,29.81
2023-06-07T13:51:53.954Z,30.06
2023-06-07T13:54:30.313Z,30.18
2023-06-07T13:56:57.128Z,30.04
2023-06-07T13:59:25.455Z,30.07
2023-06-07T14:01:56.447Z,30.23
2023-06-07T14:04:23.567Z,30.37
2023-06-07T14:06:54.219Z,30.44
2023-06-07T14:09:21.413Z,30.61
2023-06-07T14:11:48.824Z,30.88
2023-06-07T14:14:16.242Z,30.94
2023-06-07T14:16:43.512Z,31.13
2023-06-07T14:19:10.390Z,30.97
2023-06-07T14:21:37.367Z,30.61
2023-06-07T14:24:04.577Z,30.20
2023-06-07T14:26:31.658Z,29.29
2023-06-07T14:28:58.607Z,29.01
2023-06-07T14:31:25.602Z,29.21
2023-06-07T14:33:53.282Z,28.73
2023-06-07T14:36:20.637Z,28.21
2023-06-07T14:38:47.810Z,28.26
2023-06-07T14:41:17.579Z,28.73
2023-06-07T14:43:44.690Z,28.94
2023-06-07T14:46:11.809Z,28.85
2023-06-07T14:48:39.007Z,28.66
2023-06-07T14:51:06.266Z,28.00
2023-06-07T14:53:33.132Z,27.77
2023-06-07T14:56:00.214Z,27.63
2023-06-07T14:58:27.125Z,27.67
2023-06-07T15:00:54.113Z,27.31
2023-06-07T15:03:21.077Z,27.06
2023-06-07T15:05:48.094Z,26.97
2023-06-07T15:08:15.219Z,26.84
2023-06-07T15:10:42.174Z,27.07
2023-06-07T15:13:09.126Z,27.14
2023-06-07T15:15:37.200Z,27.19
2023-06-07T15:18:04.531Z,26.98
2023-06-07T15:20:31.489Z,27.03
2023-06-07T15:22:58.503Z,27.40
2023-06-07T15:25:27.017Z,27.53
2023-06-07T15:27:53.878Z,27.45
2023-06-07T15:30:20.853Z,27.20
2023-06-07T15:32:47.767Z,26.94
2023-06-07T15:35:14.722Z,26.64
2023-06-07T15:37:42.009Z,26.92
2023-06-07T15:43:18.565Z,28.01
2023-06-07T15:49:19.349Z,27.58
2023-06-07T15:51:56.540Z,27.40
2023-06-07T15:54:23.913Z,27.17
2023-06-07T15:56:51.028Z,27.02
2023-06-07T15:59:17.928Z,26.91
2023-06-07T16:01:44.855Z,26.74
2023-06-07T16:04:12.749Z,26.51
2023-06-07T16:06:40.476Z,26.53
2023-06-07T16:09:10.422Z,26.58
2023-06-07T16:11:39.890Z,26.57
2023-06-07T16:14:08.546Z,26.61
2023-06-07T16:16:35.660Z,26.86
2023-06-07T16:19:03.996Z,27.25
2023-06-07T16:21:30.861Z,27.24
2023-06-07T16:24:03.502Z,27.07
2023-06-07T16:26:31.721Z,27.10
2023-06-07T16:28:58.652Z,27.25
2023-06-07T16:31:27.188Z,27.23
2023-06-07T16:33:54.154Z,27.22
2023-06-07T16:36:21.456Z,27.00
2023-06-07T16:38:48.535Z,26.79
2023-06-07T16:41:15.418Z,26.66
2023-06-07T16:43:42.312Z,26.61
2023-06-07T16:46:09.306Z,26.60
2023-06-07T16:48:36.300Z,26.47
2023-06-07T16:51:03.152Z,26.43
2023-06-07T16:53:30.122Z,26.39
2023-06-07T16:55:57.477Z,26.30
2023-06-07T16:58:24.595Z,26.42
2023-06-07T17:00:51.991Z,26.42
2023-06-07T17:03:19.089Z,26.40
2023-06-07T17:05:46.233Z,26.32
2023-06-07T17:08:14.657Z,26.22
2023-06-07T17:10:46.029Z,26.23
2023-06-07T17:13:13.020Z,26.29
2023-06-07T17:15:39.953Z,26.33
2023-06-07T17:18:06.898Z,26.36
2023-06-07T17:20:33.920Z,26.47
2023-06-07T17:23:00.975Z,26.42
2023-06-07T17:25:27.934Z,26.34
2023-06-07T17:27:54.875Z,26.47
2023-06-07T17:30:21.806Z,26.51
2023-06-07T17:32:48.975Z,26.40
2023-06-07T17:35:16.190Z,26.39
2023-06-07T17:37:43.059Z,26.19
2023-06-07T17:40:10.669Z,26.04
2023-06-07T17:42:37.516Z,25.90
2023-06-07T17:45:06.118Z,25.78
2023-06-07T17:47:52.772Z,25.66
2023-06-07T17:50:32.908Z,25.68
2023-06-07T17:53:09.394Z,25.61
2023-06-07T17:55:36.349Z,25.63
2023-06-07T17:58:03.282Z,25.51
2023-06-07T18:00:30.234Z,25.45
2023-06-07T18:02:57.181Z,25.51
2023-06-07T18:05:24.243Z,25.42
2023-06-07T18:07:52.176Z,25.48
2023-06-07T18:10:19.007Z,25.30
2023-06-07T18:12:45.902Z,25.25
2023-06-07T18:15:13.324Z,25.15
2023-06-07T18:17:41.044Z,25.05
2023-06-07T18:20:09.191Z,24.89
2023-06-07T18:22:36.288Z,24.77
2023-06-07T18:25:03.285Z,24.69
2023-06-07T18:27:30.831Z,24.59
2023-06-07T18:29:58.641Z,24.42
2023-06-07T18:32:25.540Z,24.41
2023-06-07T18:34:53.209Z,24.28
2023-06-07T18:37:20.199Z,24.27
2023-06-07T18:39:47.105Z,24.21
2023-06-07T18:42:15.764Z,24.14
2023-06-07T18:44:43.607Z,24.04
2023-06-07T18:47:10.559Z,24.01
2023-06-07T18:49:37.546Z,23.97
2023-06-07T18:52:11.140Z,23.92
2023-06-07T18:54:38.708Z,23.85
2023-06-07T18:57:07.613Z,23.83
2023-06-07T18:59:34.546Z,23.77
2023-06-07T19:02:02.119Z,23.78
2023-06-07T19:04:30.325Z,23.79
2023-06-07T19:06:57.380Z,23.83
2023-06-07T19:09:24.357Z,23.82
2023-06-07T19:11:51.253Z,23.77
2023-06-07T19:14:19.807Z,23.60
2023-06-07T19:16:47.348Z,23.49
2023-06-07T19:19:14.369Z,23.38
2023-06-07T19:21:41.332Z,23.32
2023-06-07T19:24:08.983Z,23.25
2023-06-07T19:26:36.054Z,23.16
2023-06-07T19:29:04.270Z,23.01
2023-06-07T19:31:31.390Z,22.89
2023-06-07T19:33:58.391Z,22.79
2023-06-07T19:36:25.365Z,22.66
2023-06-07T19:38:54.038Z,22.60
2023-06-07T19:41:21.206Z,22.47
2023-06-07T19:43:48.111Z,22.44
2023-06-07T19:46:15.051Z,22.45
2023-06-07T19:48:41.990Z,22.37
2023-06-07T19:51:10.449Z,22.32
2023-06-07T19:53:37.600Z,22.31
2023-06-07T19:56:05.227Z,22.35
2023-06-07T19:58:32.335Z,22.24
2023-06-07T20:00:59.261Z,22.24
2023-06-07T20:03:26.236Z,22.13
2023-06-07T20:05:53.196Z,22.09
2023-06-07T20:08:20.183Z,22.09
2023-06-07T20:10:47.093Z,22.02
2023-06-07T20:13:18.258Z,22.01
2023-06-07T20:15:46.211Z,22.00
2023-06-07T20:18:13.126Z,22.01
2023-06-07T20:20:40.993Z,21.94
2023-06-07T20:23:08.043Z,21.92
2023-06-07T20:25:34.972Z,21.93
2023-06-07T20:28:02.046Z,21.89
2023-06-07T20:30:28.987Z,21.90
2023-06-07T20:32:56.143Z,21.91
2023-06-07T20:35:23.245Z,21.87
2023-06-07T20:37:50.701Z,21.92
2023-06-07T20:40:17.903Z,21.92
2023-06-07T20:42:44.806Z,22.03
2023-06-07T20:45:13.993Z,22.03
2023-06-07T20:47:41.429Z,22.07
2023-06-07T20:50:09.663Z,22.04
2023-06-07T20:52:36.556Z,22.08
2023-06-07T20:55:04.392Z,22.10
2023-06-07T20:57:31.597Z,22.08
2023-06-07T21:00:01.931Z,22.10
2023-06-07T21:02:29.065Z,21.91
2023-06-07T21:04:56.391Z,21.98
2023-06-07T21:07:23.418Z,22.05
2023-06-07T21:09:50.317Z,22.05
2023-06-07T21:12:17.302Z,21.93
2023-06-07T21:14:44.514Z,21.85
2023-06-07T21:17:11.760Z,21.93
2023-06-07T21:19:38.789Z,21.91
2023-06-07T21:22:06.823Z,21.82
2023-06-07T21:24:33.867Z,21.73
2023-06-07T21:27:00.931Z,21.78
2023-06-07T21:29:28.108Z,21.58
2023-06-07T21:31:55.369Z,21.47
2023-06-07T21:34:22.233Z,21.45
2023-06-07T21:36:49.254Z,21.37
2023-06-07T21:39:16.105Z,21.44
2023-06-07T21:41:43.100Z,21.52
2023-06-07T21:44:10.037Z,21.53
2023-06-07T21:46:37.052Z,21.54
2023-06-07T21:49:03.953Z,21.53
2023-06-07T21:51:30.864Z,21.50
2023-06-07T21:53:57.809Z,21.49
2023-06-07T21:56:24.705Z,21.45
2023-06-07T21:58:51.662Z,21.31
2023-06-07T22:01:18.519Z,21.21
2023-06-07T22:03:45.789Z,21.06
2023-06-07T22:06:13.816Z,20.97
2023-06-07T22:08:41.005Z,20.93
2023-06-07T22:11:07.923Z,20.98
2023-06-07T22:13:38.355Z,20.93
2023-06-07T22:16:06.056Z,20.82
2023-06-07T22:18:36.730Z,20.89
2023-06-07T22:21:04.468Z,20.73
2023-06-07T22:23:32.771Z,20.85
2023-06-07T22:26:02.842Z,20.75
2023-06-07T22:28:32.370Z,20.78
2023-06-07T22:30:59.895Z,20.90
2023-06-07T22:33:27.130Z,20.84
2023-06-07T22:35:58.694Z,20.84
2023-06-07T22:38:27.448Z,20.78
2023-06-07T22:40:55.883Z,20.76
2023-06-07T22:43:23.084Z,20.81
2023-06-07T22:45:50.132Z,20.81
2023-06-07T22:48:17.411Z,20.87
2023-06-07T22:50:44.632Z,20.84
2023-06-07T22:53:13.841Z,20.86
2023-06-07T22:55:44.450Z,20.88
2023-06-07T22:58:11.587Z,20.72
2023-06-07T23:00:41.104Z,20.76
2023-06-07T23:03:08.717Z,20.76
2023-06-07T23:05:36.643Z,20.78
2023-06-07T23:08:04.280Z,20.80
2023-06-07T23:10:37.312Z,20.72
2023-06-07T23:13:10.695Z,20.62
2023-06-07T23:15:43.628Z,20.54
2023-06-07T23:18:12.286Z,20.46
2023-06-07T23:20:42.804Z,20.44
2023-06-07T23:23:11.537Z,20.43
2023-06-07T23:25:38.770Z,20.46
2023-06-07T23:28:07.218Z,20.36
2023-06-07T23:30:34.934Z,20.31
2023-06-07T23:33:03.079Z,20.32
2023-06-07T23:35:30.541Z,20.36
2023-06-07T23:37:57.976Z,20.38
2023-06-07T23:40:25.108Z,20.17
2023-06-07T23:42:53.688Z,20.16
2023-06-07T23:45:24.160Z,20.07
2023-06-07T23:47:51.437Z,19.98
2023-06-07T23:50:18.584Z,20.04
2023-06-07T23:52:45.804Z,20.02
2023-06-07T23:55:14.683Z,20.10
2023-06-07T23:57:42.016Z,20.11
